Weather History for KCRX - November, 2013

Change the Weather History Date:

Sunday, November 24, 2013

  Actual Average Record
Temperature  
Mean Temperature 30 °F -  
Max Temperature 37 °F 58 °F 77 °F (1973)
Min Temperature 24 °F 38 °F 12 °F (1970)
Degree Days  
Heating Degree Days 34    
Moisture  
Dew Point 14 °F    
Average Humidity 53    
Maximum Humidity 64    
Minimum Humidity 33    
Precipitation  
Precipitation 0.00 in - - ()
Sea Level Pressure  
Sea Level Pressure 30.54 in    
Wind  
Wind Speed 12 mph (NNE)    
Max Wind Speed 20 mph    
Max Gust Speed 25 mph    
Visibility 10 miles    
Events      
Averages and records for this station are not official NWS values.
T = Trace of Precipitation, MM = Missing Value Source: NWS Daily Summary

Daily Weather History Graph

Daily Weather History Graph

Search for Another Location

Airport or City:

Trip Planner

Search our weather history database for the weather conditions in past years. The results will help you decide how hot, cold, wet, or windy it might be!

Date:

Astronomy

Nov. 24, 2013 Rise Set
Actual Time 6:37 AM CST 4:44 PM CST
Civil Twilight 6:10 AM CST 5:11 PM CST
Nautical Twilight 5:39 AM CST 5:42 PM CST
Astronomical Twilight 5:08 AM CST 6:13 PM CST
Moon 11:02 PM CST (11/24) 11:31 AM CST (11/24)
Length of Visible Light 11h 01m
Length of Day
10h 06m
Waning Gibbous, 60% of the Moon is Illuminated
Nov 24
Waning Gibbous
Nov 25
Last Quarter
Dec 2
New
Dec 9
First Quarter
Dec 17
Full

Hourly Weather History & Observations

Time (CST) Temp. Windchill Dew Point Humidity Pressure Visibility Wind Dir Wind Speed Gust Speed Precip Events Conditions
12:10 AM 30.2 °F 21.3 °F 17.6 °F 60% 30.53 in 10.0 mi North 10.4 mph 18.4 mph N/A   Clear
12:30 AM 30.2 °F 19.8 °F 17.6 °F 60% 30.53 in 10.0 mi North 13.8 mph 21.9 mph N/A   Clear
12:50 AM 28.4 °F 17.0 °F 17.6 °F 64% 30.54 in 10.0 mi North 15.0 mph 18.4 mph N/A   Clear
1:10 AM 28.4 °F 19.1 °F 17.6 °F 64% 30.54 in 10.0 mi North 10.4 mph 18.4 mph N/A   Clear
1:30 AM 28.4 °F 17.0 °F 17.6 °F 64% 30.54 in 10.0 mi NNE 15.0 mph 21.9 mph N/A   Clear
1:50 AM 28.4 °F 15.4 °F 17.6 °F 64% 30.54 in 10.0 mi NNE 19.6 mph 25.3 mph N/A   Clear
2:10 AM 28.4 °F 18.0 °F 15.8 °F 59% 30.55 in 10.0 mi NNE 12.7 mph 25.3 mph N/A   Clear
2:30 AM 28.4 °F 15.4 °F 15.8 °F 59% 30.55 in 10.0 mi NNE 19.6 mph 25.3 mph N/A   Clear
2:50 AM 26.6 °F 16.2 °F 15.8 °F 64% 30.55 in 10.0 mi NNE 11.5 mph 20.7 mph N/A   Clear
3:10 AM 26.6 °F 15.2 °F 15.8 °F 64% 30.55 in 10.0 mi NNE 13.8 mph 18.4 mph N/A   Clear
3:30 AM 26.6 °F 14.3 °F 15.8 °F 64% 30.55 in 10.0 mi NNE 16.1 mph 21.9 mph N/A   Clear
3:50 AM 26.6 °F 14.3 °F 15.8 °F 64% 30.56 in 10.0 mi NNE 16.1 mph 23.0 mph N/A   Clear
4:10 AM 26.6 °F 13.8 °F 14.0 °F 59% 30.56 in 10.0 mi NNE 17.3 mph 25.3 mph N/A   Clear
4:30 AM 24.8 °F 12.9 °F 14.0 °F 64% 30.57 in 10.0 mi NNE 13.8 mph 24.2 mph N/A   Clear
4:50 AM 24.8 °F 11.5 °F 14.0 °F 64% 30.57 in 10.0 mi NNE 17.3 mph 21.9 mph N/A   Clear
5:10 AM 24.8 °F 12.4 °F 14.0 °F 64% 30.58 in 10.0 mi NNE 15.0 mph 18.4 mph N/A   Clear
5:30 AM 24.8 °F 11.9 °F 14.0 °F 64% 30.59 in 10.0 mi NE 16.1 mph 19.6 mph N/A   Clear
5:50 AM 24.8 °F 14.0 °F 14.0 °F 64% 30.60 in 10.0 mi NNE 11.5 mph 20.7 mph N/A   Clear
6:10 AM 24.8 °F 12.4 °F 14.0 °F 64% 30.61 in 10.0 mi NNE 15.0 mph - N/A   Clear
6:30 AM 24.8 °F 13.4 °F 14.0 °F 64% 30.62 in 10.0 mi NNE 12.7 mph 19.6 mph N/A   Clear
6:50 AM 24.8 °F 14.0 °F 14.0 °F 64% 30.63 in 10.0 mi NE 11.5 mph 18.4 mph N/A   Clear
7:10 AM 24.8 °F 16.1 °F 14.0 °F 64% 30.63 in 10.0 mi NNE 8.1 mph 19.6 mph N/A   Clear
7:30 AM 24.8 °F 12.9 °F 12.2 °F 59% 30.63 in 10.0 mi NNE 13.8 mph - N/A   Clear
7:50 AM 24.8 °F 11.9 °F 12.2 °F 59% 30.63 in 10.0 mi NE 16.1 mph - N/A   Clear
8:10 AM 26.6 °F 15.2 °F 14.0 °F 59% 30.63 in 10.0 mi NE 13.8 mph 23.0 mph N/A   Clear
8:30 AM 26.6 °F 14.7 °F 12.2 °F 55% 30.63 in 10.0 mi NE 15.0 mph 21.9 mph N/A   Clear
8:50 AM 28.4 °F 18.0 °F 12.2 °F 51% 30.63 in 10.0 mi ENE 12.7 mph 24.2 mph N/A   Clear
9:10 AM 28.4 °F 17.5 °F 14.0 °F 55% 30.63 in 10.0 mi NE 13.8 mph 19.6 mph N/A   Clear
9:30 AM 28.4 °F 18.5 °F 12.2 °F 51% 30.63 in 10.0 mi NNE 11.5 mph - N/A   Clear
9:50 AM 32.0 °F 23.0 °F 14.0 °F 48% 30.63 in 10.0 mi NE 11.5 mph - N/A   Clear
10:10 AM 32.0 °F 22.5 °F 12.2 °F 44% 30.62 in 10.0 mi NNE 12.7 mph - N/A   Clear
10:30 AM 32.0 °F 24.2 °F 12.2 °F 44% 30.60 in 10.0 mi NE 9.2 mph 17.3 mph N/A   Clear
10:50 AM 32.0 °F 22.5 °F 14.0 °F 48% 30.59 in 10.0 mi NNE 12.7 mph 16.1 mph N/A   Clear
11:10 AM 32.0 °F 23.6 °F 12.2 °F 44% 30.58 in 10.0 mi NNE 10.4 mph 18.4 mph N/A   Clear
11:30 AM 33.8 °F 24.3 °F 14.0 °F 44% 30.57 in 10.0 mi North 13.8 mph 17.3 mph N/A   Clear
11:50 AM 33.8 °F 25.8 °F 12.2 °F 41% 30.57 in 10.0 mi NNE 10.4 mph - N/A   Clear
12:10 PM 35.6 °F 28.0 °F 12.2 °F 38% 30.56 in 10.0 mi NE 10.4 mph 16.1 mph N/A   Clear
12:30 PM 35.6 °F 29.9 °F 10.4 °F 35% 30.55 in 10.0 mi NNE 6.9 mph 16.1 mph N/A   Clear
12:50 PM 35.6 °F 28.6 °F 10.4 °F 35% 30.54 in 10.0 mi NE 9.2 mph - N/A   Clear
1:10 PM 37.4 °F 29.3 °F 10.4 °F 33% 30.53 in 10.0 mi NE 12.7 mph 18.4 mph N/A   Clear
1:30 PM 37.4 °F 31.4 °F 10.4 °F 33% 30.52 in 10.0 mi NE 8.1 mph - N/A   Clear
1:50 PM 37.4 °F 29.3 °F 12.2 °F 36% 30.51 in 10.0 mi NNE 12.7 mph - N/A   Clear
2:10 PM 37.4 °F 30.8 °F 10.4 °F 33% 30.51 in 10.0 mi NNE 9.2 mph 16.1 mph N/A   Clear
2:30 PM 37.4 °F 30.8 °F 10.4 °F 33% 30.51 in 10.0 mi NE 9.2 mph - N/A   Clear
2:50 PM 37.4 °F 29.3 °F 10.4 °F 33% 30.50 in 10.0 mi NNE 12.7 mph - N/A   Clear
3:10 PM 37.4 °F 29.8 °F 10.4 °F 33% 30.50 in 10.0 mi NE 11.5 mph 16.1 mph N/A   Clear
3:30 PM 35.6 °F 28.6 °F 10.4 °F 35% 30.50 in 10.0 mi NNE 9.2 mph - N/A   Clear
3:50 PM 35.6 °F 29.9 °F 12.2 °F 38% 30.50 in 10.0 mi NE 6.9 mph - N/A   Clear
4:10 PM 33.8 °F 28.6 °F 12.2 °F 41% 30.50 in 10.0 mi NNE 5.8 mph - N/A   Clear
4:30 PM 33.8 °F 27.7 °F 12.2 °F 41% 30.50 in 10.0 mi North 6.9 mph - N/A   Clear
4:50 PM 32.0 °F 26.4 °F 14.0 °F 48% 30.49 in 10.0 mi North 5.8 mph - N/A   Clear
5:10 PM 32.0 °F 27.5 °F 14.0 °F 48% 30.49 in 10.0 mi North 4.6 mph - N/A   Clear
5:30 PM 32.0 °F 27.5 °F 14.0 °F 48% 30.49 in 10.0 mi North 4.6 mph - N/A   Clear
5:50 PM 32.0 °F 27.5 °F 14.0 °F 48% 30.50 in 10.0 mi North 4.6 mph - N/A   Clear
6:10 PM 32.0 °F 27.5 °F 14.0 °F 48% 30.49 in 10.0 mi North 4.6 mph - N/A   Clear
6:30 PM 30.2 °F 26.7 °F 15.8 °F 55% 30.49 in 10.0 mi North 3.5 mph - N/A   Clear
6:50 PM 30.2 °F 24.3 °F 15.8 °F 55% 30.49 in 10.0 mi North 5.8 mph - N/A   Clear
7:10 PM 30.2 °F 23.4 °F 14.0 °F 51% 30.49 in 10.0 mi North 6.9 mph - N/A   Clear
7:30 PM 30.2 °F 24.3 °F 14.0 °F 51% 30.49 in 10.0 mi North 5.8 mph - N/A   Clear
7:50 PM 30.2 °F 25.4 °F 14.0 °F 51% 30.49 in 10.0 mi North 4.6 mph - N/A   Clear
8:10 PM 28.4 °F 22.2 °F 14.0 °F 55% 30.49 in 10.0 mi North 5.8 mph - N/A   Clear
8:30 PM 28.4 °F 23.3 °F 15.8 °F 59% 30.49 in 10.0 mi NNE 4.6 mph - N/A   Clear
8:50 PM 28.4 °F 23.3 °F 14.0 °F 55% 30.48 in 10.0 mi NE 4.6 mph - N/A   Clear
9:10 PM 28.4 °F 24.6 °F 14.0 °F 55% 30.48 in 10.0 mi NE 3.5 mph - N/A   Clear
9:30 PM 28.4 °F 22.2 °F 14.0 °F 55% 30.47 in 10.0 mi NNE 5.8 mph - N/A   Clear
9:50 PM 28.4 °F 23.3 °F 15.8 °F 59% 30.46 in 10.0 mi NE 4.6 mph - N/A   Clear
10:10 PM 28.4 °F 24.6 °F 15.8 °F 59% 30.46 in 10.0 mi NNE 3.5 mph - N/A   Clear
10:30 PM 28.4 °F 23.3 °F 15.8 °F 59% 30.45 in 10.0 mi NNE 4.6 mph - N/A   Clear
10:50 PM 28.4 °F 24.6 °F 17.6 °F 64% 30.45 in 10.0 mi NE 3.5 mph - N/A   Clear
11:10 PM 28.4 °F 23.3 °F 17.6 °F 64% 30.44 in 10.0 mi ENE 4.6 mph - N/A   Clear
11:30 PM 30.2 °F 25.4 °F 15.8 °F 55% 30.44 in 10.0 mi NE 4.6 mph - N/A   Clear
11:50 PM 30.2 °F 23.4 °F 15.8 °F 55% 30.44 in 10.0 mi ENE 6.9 mph - N/A   Partly Cloudy